createdAt,value
2018-07-25T00:00:39.210Z,1010.01
2018-07-25T00:01:19.809Z,1009.99
2018-07-25T00:02:00.356Z,1010.02
2018-07-25T00:02:40.918Z,1010.02
2018-07-25T00:03:21.508Z,1009.98
2018-07-25T00:04:02.064Z,1010.03
2018-07-25T00:04:42.641Z,1010
2018-07-25T00:05:23.199Z,1010.01
2018-07-25T00:06:03.770Z,1010.03
2018-07-25T00:06:44.333Z,1009.99
2018-07-25T00:07:24.893Z,1010
2018-07-25T00:08:05.460Z,1009.99
2018-07-25T00:08:46.031Z,1010
2018-07-25T00:09:26.612Z,1009.96
2018-07-25T00:10:07.187Z,1009.97
2018-07-25T00:10:47.771Z,1009.94
2018-07-25T00:11:28.342Z,1009.96
2018-07-25T00:12:08.904Z,1009.98
2018-07-25T00:12:49.489Z,1009.94
2018-07-25T00:13:30.043Z,1009.93
2018-07-25T00:14:10.603Z,1009.96
2018-07-25T00:14:51.177Z,1009.94
2018-07-25T00:15:31.728Z,1009.98
2018-07-25T00:16:12.309Z,1009.95
2018-07-25T00:16:52.901Z,1009.94
2018-07-25T00:17:33.479Z,1009.94
2018-07-25T00:18:14.043Z,1009.92
2018-07-25T00:18:54.621Z,1009.92
2018-07-25T00:19:35.212Z,1009.92
2018-07-25T00:20:15.757Z,1009.91
2018-07-25T00:20:56.343Z,1009.92
2018-07-25T00:21:36.900Z,1009.9
2018-07-25T00:22:17.466Z,1009.87
2018-07-25T00:22:58.040Z,1009.91
2018-07-25T00:23:38.611Z,1009.88
2018-07-25T00:24:19.166Z,1009.85
2018-07-25T00:24:59.788Z,1009.88
2018-07-25T00:25:40.344Z,1009.82
2018-07-25T00:26:20.954Z,1009.84
2018-07-25T00:27:01.534Z,1009.86
2018-07-25T00:27:42.087Z,1009.8
2018-07-25T00:28:22.649Z,1009.77
2018-07-25T00:29:03.210Z,1009.79
2018-07-25T00:29:43.773Z,1009.82
2018-07-25T00:30:24.386Z,1009.76
2018-07-25T00:31:04.962Z,1009.79
2018-07-25T00:31:45.554Z,1009.78
2018-07-25T00:32:26.148Z,1009.77
2018-07-25T00:33:06.704Z,1009.81
2018-07-25T00:33:47.283Z,1009.76
2018-07-25T00:34:27.851Z,1009.79
2018-07-25T00:35:08.399Z,1009.76
2018-07-25T00:35:48.980Z,1009.77
2018-07-25T00:36:29.548Z,1009.78
2018-07-25T00:37:10.114Z,1009.81
2018-07-25T00:37:50.680Z,1009.8
2018-07-25T00:38:31.235Z,1009.81
2018-07-25T00:39:11.802Z,1009.78
2018-07-25T00:39:52.347Z,1009.8
2018-07-25T00:40:32.968Z,1009.76
2018-07-25T00:41:13.514Z,1009.82
2018-07-25T00:41:54.087Z,1009.77
2018-07-25T00:42:34.673Z,1009.79
2018-07-25T00:43:15.234Z,1009.77
2018-07-25T00:43:55.815Z,1009.79
2018-07-25T00:44:36.426Z,1009.79
2018-07-25T00:45:17.018Z,1009.78
2018-07-25T00:45:57.599Z,1009.8
2018-07-25T00:46:38.176Z,1009.78
2018-07-25T00:47:18.732Z,1009.76
2018-07-25T00:47:59.303Z,1009.76
2018-07-25T00:48:39.880Z,1009.75
2018-07-25T00:49:20.449Z,1009.77
2018-07-25T00:50:01.018Z,1009.75
2018-07-25T00:50:41.584Z,1009.75
2018-07-25T00:51:22.143Z,1009.76
2018-07-25T00:52:02.702Z,1009.76
2018-07-25T00:52:43.293Z,1009.76
2018-07-25T00:53:23.870Z,1009.75
2018-07-25T00:54:04.447Z,1009.75
2018-07-25T00:54:45.013Z,1009.78
2018-07-25T00:55:25.612Z,1009.77
2018-07-25T00:56:06.339Z,1009.77
2018-07-25T00:56:46.890Z,1009.74
2018-07-25T00:57:27.476Z,1009.74
2018-07-25T00:58:08.039Z,1009.79
2018-07-25T00:58:48.619Z,1009.75
2018-07-25T00:59:29.176Z,1009.73
2018-07-25T01:00:09.740Z,1009.76
2018-07-25T01:00:50.306Z,1009.75
2018-07-25T01:01:30.890Z,1009.76
2018-07-25T01:02:11.447Z,1009.8
2018-07-25T01:02:52.002Z,1009.75
2018-07-25T01:03:32.556Z,1009.74
2018-07-25T01:04:13.132Z,1009.7
2018-07-25T01:04:53.698Z,1009.7
2018-07-25T01:05:34.270Z,1009.71
2018-07-25T01:06:14.840Z,1009.72
2018-07-25T01:06:55.438Z,1009.75
2018-07-25T01:07:35.983Z,1009.72
2018-07-25T01:08:16.553Z,1009.77
2018-07-25T01:08:57.116Z,1009.75
2018-07-25T01:09:37.702Z,1009.72
2018-07-25T01:10:18.283Z,1009.72
2018-07-25T01:10:58.850Z,1009.77
2018-07-25T01:11:39.427Z,1009.75
2018-07-25T01:12:19.999Z,1009.75
2018-07-25T01:13:00.607Z,1009.74
2018-07-25T01:13:41.255Z,1009.72
2018-07-25T01:14:21.822Z,1009.7
2018-07-25T01:15:02.418Z,1009.73
2018-07-25T01:15:42.995Z,1009.73
2018-07-25T01:16:23.591Z,1009.72
2018-07-25T01:17:04.136Z,1009.72
2018-07-25T01:17:44.697Z,1009.74
2018-07-25T01:18:25.264Z,1009.71
2018-07-25T01:19:05.828Z,1009.73
2018-07-25T01:19:46.400Z,1009.76
2018-07-25T01:20:26.969Z,1009.74
2018-07-25T01:21:07.546Z,1009.75
2018-07-25T01:21:48.109Z,1009.72
2018-07-25T01:22:28.682Z,1009.73
2018-07-25T01:23:09.255Z,1009.75
2018-07-25T01:23:49.820Z,1009.75
2018-07-25T01:24:30.392Z,1009.73
2018-07-25T01:25:10.968Z,1009.76
2018-07-25T01:25:51.529Z,1009.74
2018-07-25T01:26:32.144Z,1009.74
2018-07-25T01:27:12.708Z,1009.73
2018-07-25T01:27:53.329Z,1009.73
2018-07-25T01:28:33.864Z,1009.73
2018-07-25T01:29:14.527Z,1009.74
2018-07-25T01:29:55.077Z,1009.73
2018-07-25T01:30:35.664Z,1009.71
2018-07-25T01:31:16.221Z,1009.74
2018-07-25T01:31:56.774Z,1009.73
2018-07-25T01:32:37.336Z,1009.74
2018-07-25T01:33:17.903Z,1009.71
2018-07-25T01:33:58.466Z,1009.74
2018-07-25T01:34:39.030Z,1009.74
2018-07-25T01:35:19.629Z,1009.75
2018-07-25T01:36:00.211Z,1009.74
2018-07-25T01:36:40.785Z,1009.74
2018-07-25T01:37:21.429Z,1009.74
2018-07-25T01:38:01.994Z,1009.76
2018-07-25T01:38:42.548Z,1009.77
2018-07-25T01:39:23.123Z,1009.74
2018-07-25T01:40:03.687Z,1009.79
2018-07-25T01:40:44.265Z,1009.77
2018-07-25T01:41:24.835Z,1009.79
2018-07-25T01:42:05.406Z,1009.78
2018-07-25T01:42:45.993Z,1009.78
2018-07-25T01:43:26.547Z,1009.78
2018-07-25T01:44:07.132Z,1009.81
2018-07-25T01:44:47.686Z,1009.81
2018-07-25T01:45:28.240Z,1009.82
2018-07-25T01:46:08.834Z,1009.83
2018-07-25T01:46:49.403Z,1009.85
2018-07-25T01:47:29.974Z,1009.84
2018-07-25T01:48:10.549Z,1009.84
2018-07-25T01:48:51.144Z,1009.85
2018-07-25T01:49:31.700Z,1009.86
2018-07-25T01:50:12.288Z,1009.86
2018-07-25T01:50:52.851Z,1009.87
2018-07-25T01:51:33.430Z,1009.87
2018-07-25T01:52:13.999Z,1009.86
2018-07-25T01:52:54.561Z,1009.91
2018-07-25T01:53:35.114Z,1009.88
2018-07-25T01:54:15.684Z,1009.87
2018-07-25T01:54:56.229Z,1009.91
2018-07-25T01:55:36.773Z,1009.93
2018-07-25T01:56:17.433Z,1009.94
2018-07-25T01:56:58.076Z,1009.93
2018-07-25T01:57:38.627Z,1009.93
2018-07-25T01:58:19.191Z,1009.93
2018-07-25T01:58:59.799Z,1009.95
2018-07-25T01:59:40.338Z,1009.98
2018-07-25T02:00:20.909Z,1009.95
2018-07-25T02:01:01.549Z,1009.96
2018-07-25T02:01:42.127Z,1009.96
2018-07-25T02:02:22.664Z,1009.92
2018-07-25T02:03:03.299Z,1009.94
2018-07-25T02:03:43.881Z,1009.93
2018-07-25T02:04:24.434Z,1009.95
2018-07-25T02:05:05.003Z,1009.94
2018-07-25T02:05:45.569Z,1009.98
2018-07-25T02:06:26.143Z,1009.97
2018-07-25T02:07:06.751Z,1009.96
2018-07-25T02:07:47.460Z,1009.93
2018-07-25T02:08:28.021Z,1009.94
2018-07-25T02:09:08.580Z,1009.94
2018-07-25T02:09:49.139Z,1009.95
2018-07-25T02:10:29.736Z,1009.95
2018-07-25T02:11:10.355Z,1010.02
2018-07-25T02:11:50.932Z,1009.99
2018-07-25T02:12:31.716Z,1010.01
2018-07-25T02:13:12.153Z,1010.02
2018-07-25T02:13:52.717Z,1010.02
2018-07-25T02:14:33.293Z,1010.03
2018-07-25T02:15:13.886Z,1010.06
2018-07-25T02:15:54.441Z,1010.07
2018-07-25T02:16:35.832Z,1010.05
2018-07-25T02:17:16.403Z,1010.04
2018-07-25T02:17:56.970Z,1010.04
2018-07-25T02:18:37.582Z,1010.03
2018-07-25T02:19:18.148Z,1010.03
2018-07-25T02:19:58.723Z,1010.04
2018-07-25T02:20:39.283Z,1010.04
2018-07-25T02:21:19.844Z,1010.03
2018-07-25T02:22:00.402Z,1010.02
2018-07-25T02:22:40.958Z,1009.98
2018-07-25T02:23:21.532Z,1010.03
2018-07-25T02:24:02.086Z,1010
2018-07-25T02:24:42.638Z,1010.04
2018-07-25T02:25:23.213Z,1010.02
2018-07-25T02:26:03.818Z,1010.06
2018-07-25T02:26:44.411Z,1010.06
2018-07-25T02:27:24.952Z,1010.08
2018-07-25T02:28:05.514Z,1010.07
2018-07-25T02:28:46.076Z,1010.11
2018-07-25T02:29:26.649Z,1010.07
2018-07-25T02:30:07.208Z,1010.07
2018-07-25T02:30:47.794Z,1010.12
2018-07-25T02:31:28.404Z,1010.05
2018-07-25T02:32:08.933Z,1010.07
2018-07-25T02:32:49.509Z,1010.11
2018-07-25T02:33:30.074Z,1010.08
2018-07-25T02:34:10.663Z,1010.05
2018-07-25T02:34:51.235Z,1010.07
2018-07-25T02:35:31.826Z,1010.05
2018-07-25T02:36:12.405Z,1010.06
2018-07-25T02:36:52.969Z,1010.05
2018-07-25T02:37:33.548Z,1010.08
2018-07-25T02:38:14.115Z,1010.05
2018-07-25T02:38:54.670Z,1010.06
2018-07-25T02:39:35.252Z,1010.07
2018-07-25T02:40:15.826Z,1010.07
2018-07-25T02:40:56.397Z,1010.08
2018-07-25T02:41:36.964Z,1010.1
2018-07-25T02:42:17.584Z,1010.08
2018-07-25T02:42:58.136Z,1010.08
2018-07-25T02:43:38.768Z,1010.07
2018-07-25T02:44:19.317Z,1010.06
2018-07-25T02:44:59.885Z,1010.04
2018-07-25T02:45:40.456Z,1010.02
2018-07-25T02:46:21.023Z,1010.01
2018-07-25T02:47:01.589Z,1010.03
2018-07-25T02:47:42.131Z,1010.01
2018-07-25T02:48:22.713Z,1010.01
2018-07-25T02:49:03.238Z,1010.01
2018-07-25T02:49:43.801Z,1010.03
2018-07-25T02:50:24.358Z,1010.02
2018-07-25T02:51:04.941Z,1009.98
2018-07-25T02:51:45.499Z,1010.03
2018-07-25T02:52:26.056Z,1010.04
2018-07-25T02:53:06.638Z,1010.07
2018-07-25T02:53:47.197Z,1010.06
2018-07-25T02:54:27.768Z,1010.04
2018-07-25T02:55:08.331Z,1010.02
2018-07-25T02:55:48.893Z,1010.01
2018-07-25T02:56:29.466Z,1010.03
2018-07-25T02:57:10.021Z,1010.02
2018-07-25T02:57:50.593Z,1010.04
2018-07-25T02:58:31.153Z,1010.04
2018-07-25T02:59:11.701Z,1010.05
2018-07-25T02:59:52.270Z,1010.04
2018-07-25T03:00:32.841Z,1010.06
2018-07-25T03:01:13.412Z,1010.08
2018-07-25T03:01:53.981Z,1010.03
2018-07-25T03:02:34.563Z,1010.04
2018-07-25T03:03:15.123Z,1010.07
2018-07-25T03:03:55.686Z,1010.08
2018-07-25T03:04:36.267Z,1010.06
2018-07-25T03:05:16.858Z,1010.05
2018-07-25T03:05:57.441Z,1010.1
2018-07-25T03:06:38.001Z,1010.1
2018-07-25T03:07:18.575Z,1010.08
2018-07-25T03:07:59.141Z,1010.14
2018-07-25T03:08:39.708Z,1010.11
2018-07-25T03:09:20.287Z,1010.1
2018-07-25T03:10:00.853Z,1010.14
2018-07-25T03:10:41.424Z,1010.11
2018-07-25T03:11:21.993Z,1010.13
2018-07-25T03:12:02.560Z,1010.12
2018-07-25T03:12:43.133Z,1010.15
2018-07-25T03:13:23.716Z,1010.15
2018-07-25T03:14:04.306Z,1010.15
2018-07-25T03:14:44.850Z,1010.18
2018-07-25T03:15:25.422Z,1010.19
2018-07-25T03:16:05.978Z,1010.19
2018-07-25T03:16:46.556Z,1010.2
2018-07-25T03:17:27.114Z,1010.2
2018-07-25T03:18:07.692Z,1010.23
2018-07-25T03:18:48.254Z,1010.23
2018-07-25T03:19:28.833Z,1010.2
2018-07-25T03:20:09.389Z,1010.21
2018-07-25T03:20:49.950Z,1010.24
2018-07-25T03:21:30.508Z,1010.22
2018-07-25T03:22:11.081Z,1010.2
2018-07-25T03:22:51.661Z,1010.2
2018-07-25T03:23:32.208Z,1010.25
2018-07-25T03:24:12.766Z,1010.24
2018-07-25T03:24:53.366Z,1010.24
2018-07-25T03:25:33.919Z,1010.25
2018-07-25T03:26:14.493Z,1010.25
2018-07-25T03:26:55.114Z,1010.29
2018-07-25T03:27:35.693Z,1010.28
2018-07-25T03:28:16.253Z,1010.3
2018-07-25T03:28:56.816Z,1010.31
2018-07-25T03:29:37.390Z,1010.31
2018-07-25T03:30:17.954Z,1010.33
2018-07-25T03:30:58.507Z,1010.31
2018-07-25T03:31:39.207Z,1010.38
2018-07-25T03:32:19.674Z,1010.36
2018-07-25T03:33:00.240Z,1010.38
2018-07-25T03:33:40.824Z,1010.36
2018-07-25T03:34:21.392Z,1010.35
2018-07-25T03:35:01.956Z,1010.41
2018-07-25T03:35:42.515Z,1010.41
2018-07-25T03:36:23.095Z,1010.4
2018-07-25T03:37:03.655Z,1010.39
2018-07-25T03:37:44.236Z,1010.41
2018-07-25T03:38:24.792Z,1010.41
2018-07-25T03:39:05.349Z,1010.41
2018-07-25T03:39:45.916Z,1010.43
2018-07-25T03:40:26.478Z,1010.37
2018-07-25T03:41:07.051Z,1010.4
2018-07-25T03:41:47.607Z,1010.38
2018-07-25T03:42:28.158Z,1010.4
2018-07-25T03:43:08.706Z,1010.43
2018-07-25T03:43:49.264Z,1010.4
2018-07-25T03:44:29.826Z,1010.42
2018-07-25T03:45:10.396Z,1010.44
2018-07-25T03:45:50.971Z,1010.46
2018-07-25T03:46:31.554Z,1010.46
2018-07-25T03:47:12.112Z,1010.46
2018-07-25T03:47:52.675Z,1010.5
2018-07-25T03:48:33.280Z,1010.46
2018-07-25T03:49:13.847Z,1010.46
2018-07-25T03:49:54.411Z,1010.45
2018-07-25T03:50:34.966Z,1010.49
2018-07-25T03:51:15.521Z,1010.51
2018-07-25T03:51:56.076Z,1010.5
2018-07-25T03:52:36.649Z,1010.5
2018-07-25T03:53:17.208Z,1010.5
2018-07-25T03:53:57.773Z,1010.48
2018-07-25T03:54:38.335Z,1010.5
2018-07-25T03:55:18.907Z,1010.51
2018-07-25T03:55:59.475Z,1010.5
2018-07-25T03:56:40.035Z,1010.55
2018-07-25T03:57:20.612Z,1010.57
2018-07-25T03:58:01.185Z,1010.55
2018-07-25T03:58:41.745Z,1010.57
2018-07-25T03:59:22.318Z,1010.58
2018-07-25T04:00:02.885Z,1010.56
2018-07-25T04:00:43.442Z,1010.55
2018-07-25T04:01:23.982Z,1010.51
2018-07-25T04:02:04.551Z,1010.53
2018-07-25T04:02:45.087Z,1010.58
2018-07-25T04:03:25.637Z,1010.57
2018-07-25T04:04:06.184Z,1010.54
2018-07-25T04:04:46.740Z,1010.56
2018-07-25T04:05:27.312Z,1010.55
2018-07-25T04:06:07.903Z,1010.58
2018-07-25T04:06:48.483Z,1010.59
2018-07-25T04:07:29.044Z,1010.6
2018-07-25T04:08:09.647Z,1010.59
2018-07-25T04:08:50.172Z,1010.56
2018-07-25T04:09:30.756Z,1010.55
2018-07-25T04:10:11.307Z,1010.55
2018-07-25T04:10:51.883Z,1010.56
2018-07-25T04:11:32.449Z,1010.57
2018-07-25T04:12:12.994Z,1010.58
2018-07-25T04:12:53.551Z,1010.54
2018-07-25T04:13:34.120Z,1010.57
2018-07-25T04:14:14.701Z,1010.59
2018-07-25T04:14:55.250Z,1010.67
2018-07-25T04:15:35.838Z,1010.64
2018-07-25T04:16:16.401Z,1010.65
2018-07-25T04:16:56.963Z,1010.67
2018-07-25T04:17:37.535Z,1010.67
2018-07-25T04:18:18.113Z,1010.66
2018-07-25T04:18:58.677Z,1010.67
2018-07-25T04:19:39.238Z,1010.71
2018-07-25T04:20:19.812Z,1010.69
2018-07-25T04:21:00.388Z,1010.7
2018-07-25T04:21:40.935Z,1010.7
2018-07-25T04:22:21.509Z,1010.67
2018-07-25T04:23:02.080Z,1010.66
2018-07-25T04:23:42.661Z,1010.68
2018-07-25T04:24:23.262Z,1010.66
2018-07-25T04:25:03.803Z,1010.67
2018-07-25T04:25:44.365Z,1010.65
2018-07-25T04:26:24.971Z,1010.7
2018-07-25T04:27:05.525Z,1010.68
2018-07-25T04:27:46.086Z,1010.64
2018-07-25T04:28:26.627Z,1010.68
2018-07-25T04:29:07.208Z,1010.72
2018-07-25T04:29:47.765Z,1010.72
2018-07-25T04:30:28.425Z,1010.75
2018-07-25T04:31:08.989Z,1010.78
2018-07-25T04:31:49.540Z,1010.77
2018-07-25T04:32:30.130Z,1010.76
2018-07-25T04:33:10.701Z,1010.8
2018-07-25T04:33:51.276Z,1010.82
2018-07-25T04:34:31.845Z,1010.79
2018-07-25T04:35:12.397Z,1010.77
2018-07-25T04:35:52.953Z,1010.82
2018-07-25T04:36:33.514Z,1010.84
2018-07-25T04:37:14.079Z,1010.84
2018-07-25T04:37:54.640Z,1010.8
2018-07-25T04:38:35.197Z,1010.78
2018-07-25T04:39:15.769Z,1010.8
2018-07-25T04:39:56.357Z,1010.82
2018-07-25T04:40:36.924Z,1010.81
2018-07-25T04:41:17.485Z,1010.8
2018-07-25T04:41:58.045Z,1010.8
2018-07-25T04:42:38.728Z,1010.83
2018-07-25T04:43:19.376Z,1010.83
2018-07-25T04:43:59.941Z,1010.84
2018-07-25T04:44:40.495Z,1010.82
2018-07-25T04:45:21.082Z,1010.79
2018-07-25T04:46:01.716Z,1010.86
2018-07-25T04:46:42.304Z,1010.83
2018-07-25T04:47:22.828Z,1010.83
2018-07-25T04:48:03.407Z,1010.85
2018-07-25T04:48:44.019Z,1010.9
2018-07-25T04:49:24.579Z,1010.81
2018-07-25T04:50:05.161Z,1010.81
2018-07-25T04:50:45.710Z,1010.83
2018-07-25T04:51:26.297Z,1010.88
2018-07-25T04:52:06.854Z,1010.85
2018-07-25T04:52:47.428Z,1010.85
2018-07-25T04:53:28.011Z,1010.83
2018-07-25T04:54:08.569Z,1010.83
2018-07-25T04:54:49.166Z,1010.86
2018-07-25T04:55:29.742Z,1010.86
2018-07-25T04:56:10.325Z,1010.86
2018-07-25T04:56:50.885Z,1010.84
2018-07-25T04:57:31.518Z,1010.87
2018-07-25T04:58:12.061Z,1010.85
2018-07-25T04:58:52.633Z,1010.82
2018-07-25T04:59:33.205Z,1010.85
2018-07-25T05:00:13.773Z,1010.81
2018-07-25T05:00:54.337Z,1010.82
2018-07-25T05:01:34.915Z,1010.83
2018-07-25T05:02:15.484Z,1010.87
2018-07-25T05:02:56.035Z,1010.84
2018-07-25T05:03:36.640Z,1010.8
2018-07-25T05:04:17.216Z,1010.85
2018-07-25T05:04:57.787Z,1010.82
2018-07-25T05:05:38.336Z,1010.83
2018-07-25T05:06:18.900Z,1010.82
2018-07-25T05:06:59.492Z,1010.83
2018-07-25T05:07:40.032Z,1010.8
2018-07-25T05:08:20.597Z,1010.8
2018-07-25T05:09:01.164Z,1010.84
2018-07-25T05:09:41.729Z,1010.81
2018-07-25T05:10:22.297Z,1010.79
2018-07-25T05:11:02.850Z,1010.83
2018-07-25T05:11:43.418Z,1010.85
2018-07-25T05:12:24.023Z,1010.82
2018-07-25T05:13:04.570Z,1010.84
2018-07-25T05:13:45.133Z,1010.85
2018-07-25T05:14:25.703Z,1010.85
2018-07-25T05:15:06.284Z,1010.9
2018-07-25T05:15:46.860Z,1010.88
2018-07-25T05:16:27.427Z,1010.88
2018-07-25T05:17:07.997Z,1010.88
2018-07-25T05:17:48.561Z,1010.88
2018-07-25T05:18:29.103Z,1010.85
2018-07-25T05:19:09.697Z,1010.84
2018-07-25T05:19:50.263Z,1010.84
2018-07-25T05:20:30.842Z,1010.84
2018-07-25T05:21:11.407Z,1010.83
2018-07-25T05:21:51.961Z,1010.84
2018-07-25T05:22:32.523Z,1010.87
2018-07-25T05:23:13.120Z,1010.81
2018-07-25T05:23:53.670Z,1010.81
2018-07-25T05:24:34.238Z,1010.82
2018-07-25T05:25:14.804Z,1010.82
2018-07-25T05:25:55.375Z,1010.82
2018-07-25T05:26:35.927Z,1010.83
2018-07-25T05:27:16.469Z,1010.86
2018-07-25T05:27:57.026Z,1010.85
2018-07-25T05:28:37.581Z,1010.89
2018-07-25T05:29:18.153Z,1010.88
2018-07-25T05:29:58.714Z,1010.91
2018-07-25T05:30:39.295Z,1010.91
2018-07-25T05:31:19.863Z,1010.86
2018-07-25T05:32:00.457Z,1010.91
2018-07-25T05:32:41.019Z,1010.88
2018-07-25T05:33:21.595Z,1010.93
2018-07-25T05:34:02.177Z,1010.91
2018-07-25T05:34:42.759Z,1010.89
2018-07-25T05:35:23.338Z,1010.97
2018-07-25T05:36:03.907Z,1010.95
2018-07-25T05:36:44.486Z,1010.91
2018-07-25T05:37:25.023Z,1010.97
2018-07-25T05:38:05.600Z,1010.99
2018-07-25T05:38:46.144Z,1010.95
2018-07-25T05:39:26.708Z,1010.97
2018-07-25T05:40:07.281Z,1011.01
2018-07-25T05:40:47.873Z,1011.04
2018-07-25T05:41:28.427Z,1011.05
2018-07-25T05:42:09.001Z,1011.12
2018-07-25T05:42:49.550Z,1011.2
2018-07-25T05:43:30.120Z,1011.24
2018-07-25T05:44:10.694Z,1011.29
2018-07-25T05:44:51.264Z,1011.32
2018-07-25T05:45:31.826Z,1011.38
2018-07-25T05:46:12.439Z,1011.42
2018-07-25T05:46:53.011Z,1011.4
2018-07-25T05:47:33.579Z,1011.38
2018-07-25T05:48:14.142Z,1011.34
2018-07-25T05:48:54.698Z,1011.41
2018-07-25T05:49:35.277Z,1011.41
2018-07-25T05:50:15.836Z,1011.38
2018-07-25T05:50:56.413Z,1011.45
2018-07-25T05:51:36.987Z,1011.46
2018-07-25T05:52:17.542Z,1011.54
2018-07-25T05:52:58.103Z,1011.55
2018-07-25T05:53:38.670Z,1011.58
2018-07-25T05:54:19.242Z,1011.56
2018-07-25T05:54:59.807Z,1011.55
2018-07-25T05:55:40.369Z,1011.6
2018-07-25T05:56:20.950Z,1011.6
2018-07-25T05:57:01.508Z,1011.58
2018-07-25T05:57:42.073Z,1011.6
2018-07-25T05:58:22.656Z,1011.66
2018-07-25T05:59:03.240Z,1011.71
2018-07-25T05:59:43.812Z,1011.76
2018-07-25T06:00:24.388Z,1011.77
2018-07-25T06:01:04.963Z,1011.81
2018-07-25T06:01:45.576Z,1011.86
2018-07-25T06:02:26.155Z,1011.92
2018-07-25T06:03:06.804Z,1011.94
2018-07-25T06:03:47.306Z,1012.01
2018-07-25T06:04:27.948Z,1012.01
2018-07-25T06:05:08.455Z,1012.1
2018-07-25T06:05:49.096Z,1012.1
2018-07-25T06:06:29.683Z,1012.17
2018-07-25T06:07:10.264Z,1012.25
2018-07-25T06:07:50.776Z,1012.34
2018-07-25T06:08:31.357Z,1012.37
2018-07-25T06:09:11.994Z,1012.45
2018-07-25T06:09:52.602Z,1012.5
2018-07-25T06:10:33.177Z,1012.62
2018-07-25T06:11:13.758Z,1012.65
2018-07-25T06:11:54.392Z,1012.67
2018-07-25T06:12:35.617Z,1012.63
2018-07-25T06:13:17.329Z,1012.66
2018-07-25T06:13:58.050Z,1012.64
2018-07-25T06:14:38.631Z,1012.62
2018-07-25T06:15:19.287Z,1012.59
2018-07-25T06:15:59.860Z,1012.56
2018-07-25T06:16:40.443Z,1012.58
2018-07-25T06:17:21.033Z,1012.63
2018-07-25T06:18:01.603Z,1012.71
2018-07-25T06:18:42.140Z,1012.58
2018-07-25T06:19:22.756Z,1012.41
2018-07-25T06:20:03.345Z,1012.32
2018-07-25T06:20:43.959Z,1012.33
2018-07-25T06:21:24.541Z,1012.37
2018-07-25T06:22:05.123Z,1012.3
2018-07-25T06:22:45.716Z,1012.12
2018-07-25T06:23:26.289Z,1011.9
2018-07-25T06:24:06.849Z,1011.77
2018-07-25T06:24:47.426Z,1011.71
2018-07-25T06:25:28.009Z,1011.64
2018-07-25T06:26:08.583Z,1011.62
2018-07-25T06:26:49.156Z,1011.64
2018-07-25T06:27:29.727Z,1011.62
2018-07-25T06:28:10.305Z,1011.68
2018-07-25T06:28:50.852Z,1011.71
2018-07-25T06:29:31.423Z,1011.71
2018-07-25T06:30:11.992Z,1011.83
2018-07-25T06:30:52.620Z,1011.97
2018-07-25T06:31:33.169Z,1012.21
2018-07-25T06:32:13.747Z,1012.33
2018-07-25T06:32:54.316Z,1012.34
2018-07-25T06:33:34.872Z,1012.28
2018-07-25T06:34:15.490Z,1012.28
2018-07-25T06:34:56.024Z,1012.2
2018-07-25T06:35:36.592Z,1012.08
2018-07-25T06:36:17.176Z,1012
2018-07-25T06:36:57.737Z,1012.03
2018-07-25T06:37:38.301Z,1012.1
2018-07-25T06:38:18.880Z,1012.17
2018-07-25T06:38:59.483Z,1012.17
2018-07-25T06:39:40.082Z,1012.13
2018-07-25T06:40:20.640Z,1012.14
2018-07-25T06:41:01.208Z,1012.07
2018-07-25T06:41:41.809Z,1012.05
2018-07-25T06:42:22.387Z,1012.02
2018-07-25T06:43:02.958Z,1011.99
2018-07-25T06:43:43.655Z,1011.91
2018-07-25T06:44:24.111Z,1011.85
2018-07-25T06:45:04.694Z,1011.76
2018-07-25T06:45:45.268Z,1011.72
2018-07-25T06:46:25.852Z,1011.71
2018-07-25T06:47:06.427Z,1011.64
2018-07-25T06:47:47.043Z,1011.69
2018-07-25T06:48:27.600Z,1011.62
2018-07-25T06:49:08.179Z,1011.61
2018-07-25T06:49:48.758Z,1011.62
2018-07-25T06:50:29.342Z,1011.66
2018-07-25T06:51:09.977Z,1011.66
2018-07-25T06:51:50.578Z,1011.65
2018-07-25T06:52:31.145Z,1011.65
2018-07-25T06:53:11.762Z,1011.68
2018-07-25T06:53:52.333Z,1011.69
2018-07-25T06:54:32.934Z,1011.64
2018-07-25T06:55:13.530Z,1011.64
2018-07-25T06:55:54.095Z,1011.63
2018-07-25T06:56:34.668Z,1011.62
2018-07-25T06:57:15.312Z,1011.64
2018-07-25T06:57:55.839Z,1011.65
2018-07-25T06:58:36.407Z,1011.67
2018-07-25T06:59:16.980Z,1011.64
2018-07-25T06:59:57.572Z,1011.67
2018-07-25T07:00:38.154Z,1011.67
2018-07-25T07:01:18.725Z,1011.67
2018-07-25T07:01:59.281Z,1011.68
2018-07-25T07:02:39.849Z,1011.72
2018-07-25T07:03:20.459Z,1011.71
2018-07-25T07:04:01.041Z,1011.68
2018-07-25T07:04:41.629Z,1011.75
2018-07-25T07:05:22.312Z,1011.71
2018-07-25T07:06:02.884Z,1011.78
2018-07-25T07:06:43.497Z,1011.77
2018-07-25T07:07:24.023Z,1011.73
2018-07-25T07:08:04.613Z,1011.75
2018-07-25T07:08:45.185Z,1011.73
2018-07-25T07:09:25.808Z,1011.76
2018-07-25T07:10:06.341Z,1011.74
2018-07-25T07:10:46.915Z,1011.77
2018-07-25T07:11:27.487Z,1011.76
2018-07-25T07:12:08.151Z,1011.75
2018-07-25T07:12:48.654Z,1011.77
2018-07-25T07:13:29.251Z,1011.78
2018-07-25T07:14:09.827Z,1011.8
2018-07-25T07:14:50.416Z,1011.75
2018-07-25T07:15:31.008Z,1011.78
2018-07-25T07:16:11.579Z,1011.8
2018-07-25T07:16:52.153Z,1011.77
2018-07-25T07:17:32.799Z,1011.8
2018-07-25T07:18:13.317Z,1011.8
2018-07-25T07:18:53.874Z,1011.83
2018-07-25T07:19:34.757Z,1011.79
2018-07-25T07:20:15.338Z,1011.81
2018-07-25T07:20:55.983Z,1011.82
2018-07-25T07:21:36.615Z,1011.82
2018-07-25T07:22:17.213Z,1011.77
2018-07-25T07:22:57.909Z,1011.78
2018-07-25T07:23:38.916Z,1011.78
2018-07-25T07:24:19.485Z,1011.8
2018-07-25T07:25:00.060Z,1011.79
2018-07-25T07:25:40.664Z,1011.79
2018-07-25T07:26:21.230Z,1011.8
2018-07-25T07:27:01.827Z,1011.8
2018-07-25T07:27:42.367Z,1011.83
2018-07-25T07:28:22.978Z,1011.85
2018-07-25T07:29:03.553Z,1011.83
2018-07-25T07:29:44.128Z,1011.84
2018-07-25T07:30:24.704Z,1011.81
2018-07-25T07:31:05.284Z,1011.81
2018-07-25T07:31:45.873Z,1011.8
2018-07-25T07:32:26.461Z,1011.85
2018-07-25T07:33:07.042Z,1011.81
2018-07-25T07:33:47.625Z,1011.84
2018-07-25T07:34:28.206Z,1011.85
2018-07-25T07:35:08.801Z,1011.87
2018-07-25T07:35:49.343Z,1011.84
2018-07-25T07:36:29.907Z,1011.86
2018-07-25T07:37:10.528Z,1011.87
2018-07-25T07:37:51.182Z,1011.81
2018-07-25T07:38:31.641Z,1011.83
2018-07-25T07:39:12.232Z,1011.77
2018-07-25T07:39:52.811Z,1011.76
2018-07-25T07:40:33.398Z,1011.77
2018-07-25T07:41:13.989Z,1011.77
2018-07-25T07:41:54.581Z,1011.77
2018-07-25T07:42:35.154Z,1011.79
2018-07-25T07:43:15.751Z,1011.76
2018-07-25T07:43:56.334Z,1011.77
2018-07-25T07:44:36.909Z,1011.79
2018-07-25T07:45:17.490Z,1011.79
2018-07-25T07:45:58.104Z,1011.79
2018-07-25T07:46:38.639Z,1011.8
2018-07-25T07:47:19.220Z,1011.8
2018-07-25T07:47:59.803Z,1011.83
2018-07-25T07:48:40.455Z,1011.82
2018-07-25T07:49:21.048Z,1011.83
2018-07-25T07:50:01.649Z,1011.82
2018-07-25T07:50:42.205Z,1011.83
2018-07-25T07:51:22.793Z,1011.82
2018-07-25T07:52:03.374Z,1011.83
2018-07-25T07:52:43.948Z,1011.85
2018-07-25T07:53:24.580Z,1011.83
2018-07-25T07:54:05.175Z,1011.83
2018-07-25T07:54:45.706Z,1011.85
2018-07-25T07:55:26.271Z,1011.86
2018-07-25T07:56:06.843Z,1011.83
2018-07-25T07:56:47.428Z,1011.83
2018-07-25T07:57:28.004Z,1011.87
2018-07-25T07:58:08.589Z,1011.84
2018-07-25T07:58:49.158Z,1011.84
2018-07-25T07:59:29.795Z,1011.85
2018-07-25T08:00:10.327Z,1011.84
2018-07-25T08:00:50.898Z,1011.8
2018-07-25T08:01:31.518Z,1011.81
2018-07-25T08:02:12.180Z,1011.83
2018-07-25T08:02:52.765Z,1011.82
2018-07-25T08:03:33.365Z,1011.84
2018-07-25T08:04:13.944Z,1011.81
2018-07-25T08:04:54.545Z,1011.82
2018-07-25T08:05:35.121Z,1011.84
2018-07-25T08:06:15.699Z,1011.78
2018-07-25T08:06:56.280Z,1011.79
2018-07-25T08:07:36.864Z,1011.82
2018-07-25T08:08:17.451Z,1011.81
2018-07-25T08:08:58.020Z,1011.8
2018-07-25T08:09:38.602Z,1011.78
2018-07-25T08:10:19.176Z,1011.8
2018-07-25T08:10:59.770Z,1011.81
2018-07-25T08:11:40.336Z,1011.79
2018-07-25T08:12:20.921Z,1011.84
2018-07-25T08:13:01.501Z,1011.8